createdAt,value
2018-10-06T00:01:57.630Z,87.50
2018-10-06T00:04:27.250Z,87.70
2018-10-06T00:06:56.870Z,87.90
2018-10-06T00:09:26.498Z,87.90
2018-10-06T00:11:56.173Z,88.10
2018-10-06T00:14:25.785Z,88.30
2018-10-06T00:16:55.435Z,88.30
2018-10-06T00:19:25.029Z,88.40
2018-10-06T00:21:54.651Z,88.40
2018-10-06T00:24:24.263Z,88.50
2018-10-06T00:26:53.870Z,88.50
2018-10-06T00:29:23.464Z,88.40
2018-10-06T00:31:53.144Z,88.50
2018-10-06T00:34:22.795Z,88.50
2018-10-06T00:36:52.444Z,88.70
2018-10-06T00:39:22.076Z,88.60
2018-10-06T00:41:51.871Z,88.80
2018-10-06T00:44:21.506Z,88.90
2018-10-06T00:46:51.136Z,89.00
2018-10-06T00:49:20.790Z,89.00
2018-10-06T00:51:50.437Z,89.10
2018-10-06T00:54:20.138Z,89.20
2018-10-06T00:56:49.782Z,89.40
2018-10-06T00:59:19.398Z,89.40
2018-10-06T01:01:49.077Z,89.50
2018-10-06T01:04:18.707Z,89.60
2018-10-06T01:06:48.323Z,89.70
2018-10-06T01:09:17.966Z,89.80
2018-10-06T01:11:47.630Z,89.80
2018-10-06T01:14:17.241Z,89.90
2018-10-06T01:16:46.869Z,90.00
2018-10-06T01:19:16.463Z,90.00
2018-10-06T01:21:46.106Z,90.00
2018-10-06T01:24:15.704Z,90.00
2018-10-06T01:26:45.324Z,90.00
2018-10-06T01:29:14.920Z,90.00
2018-10-06T01:31:44.540Z,90.00
2018-10-06T01:34:14.150Z,90.00
2018-10-06T01:36:43.824Z,90.00
2018-10-06T01:39:13.447Z,90.00
2018-10-06T01:41:43.045Z,90.10
2018-10-06T01:44:12.658Z,90.00
2018-10-06T01:46:42.285Z,90.10
2018-10-06T01:49:11.888Z,90.10
2018-10-06T01:51:41.541Z,90.20
2018-10-06T01:54:11.152Z,90.20
2018-10-06T01:56:40.767Z,90.30
2018-10-06T01:59:10.407Z,90.30
2018-10-06T02:01:40.032Z,90.40
2018-10-06T02:04:09.799Z,90.30
2018-10-06T02:06:39.411Z,90.40
2018-10-06T02:09:09.027Z,90.50
2018-10-06T02:11:38.640Z,90.50
2018-10-06T02:14:08.246Z,90.50
2018-10-06T02:16:37.848Z,90.50
2018-10-06T02:19:07.490Z,90.60
2018-10-06T02:21:37.123Z,90.60
2018-10-06T02:24:06.814Z,90.70
2018-10-06T02:26:36.545Z,90.70
2018-10-06T02:29:06.188Z,91.00
2018-10-06T02:31:35.837Z,90.70
2018-10-06T02:34:05.496Z,90.80
2018-10-06T02:36:35.142Z,90.80
2018-10-06T02:39:05.288Z,90.80
2018-10-06T02:41:34.918Z,90.90
2018-10-06T02:44:04.548Z,90.90
2018-10-06T02:46:34.206Z,90.90
2018-10-06T02:51:33.492Z,90.90
2018-10-06T02:54:03.090Z,91.00
2018-10-06T02:56:32.692Z,91.00
2018-10-06T02:59:02.320Z,91.00
2018-10-06T03:01:31.970Z,91.00
2018-10-06T03:04:01.597Z,91.00
2018-10-06T03:06:31.232Z,91.10
2018-10-06T03:09:00.847Z,91.20
2018-10-06T03:11:30.490Z,91.20
2018-10-06T03:14:00.093Z,91.10
2018-10-06T03:16:29.719Z,91.20
2018-10-06T03:18:59.356Z,91.20
2018-10-06T03:21:28.974Z,91.30
2018-10-06T03:23:58.595Z,91.40
2018-10-06T03:26:28.223Z,91.50
2018-10-06T03:28:57.848Z,91.50
2018-10-06T03:31:27.518Z,91.60
2018-10-06T03:33:57.160Z,91.60
2018-10-06T03:36:26.792Z,91.60
2018-10-06T03:38:56.402Z,91.70
2018-10-06T03:41:26.012Z,91.70
2018-10-06T03:43:55.615Z,91.70
2018-10-06T03:46:25.273Z,91.70
2018-10-06T03:48:54.916Z,91.80
2018-10-06T03:51:24.549Z,91.80
2018-10-06T03:53:54.264Z,91.80
2018-10-06T03:56:23.946Z,91.80
2018-10-06T03:58:53.678Z,91.90
2018-10-06T04:01:23.332Z,91.90
2018-10-06T04:03:52.963Z,91.90
2018-10-06T04:06:22.598Z,92.20
2018-10-06T04:08:52.214Z,92.00
2018-10-06T04:11:21.835Z,92.10
2018-10-06T04:13:51.470Z,92.20
2018-10-06T04:16:21.089Z,92.30
2018-10-06T04:18:50.705Z,92.30
2018-10-06T04:21:20.365Z,92.40
2018-10-06T04:23:50.022Z,92.40
2018-10-06T04:26:19.652Z,92.50
2018-10-06T04:28:49.268Z,92.50
2018-10-06T04:31:18.931Z,92.60
2018-10-06T04:33:48.572Z,92.40
2018-10-06T04:36:18.206Z,92.70
2018-10-06T04:38:47.814Z,93.00
2018-10-06T04:41:17.470Z,92.80
2018-10-06T04:43:47.088Z,92.90
2018-10-06T04:46:16.700Z,92.90
2018-10-06T04:48:46.303Z,92.90
2018-10-06T04:51:16.010Z,92.80
2018-10-06T04:53:45.686Z,92.80
2018-10-06T04:56:15.405Z,92.80
2018-10-06T04:58:45.035Z,92.90
2018-10-06T05:01:14.658Z,93.00
2018-10-06T05:03:44.293Z,93.10
2018-10-06T05:06:13.920Z,93.10
2018-10-06T05:08:43.548Z,93.20
2018-10-06T05:11:13.271Z,93.20
2018-10-06T05:13:42.871Z,93.30
2018-10-06T05:16:12.553Z,93.60
2018-10-06T05:18:42.160Z,93.30
2018-10-06T05:21:11.763Z,93.40
2018-10-06T05:23:41.448Z,93.40
2018-10-06T05:26:11.072Z,93.50
2018-10-06T05:28:40.660Z,93.40
2018-10-06T05:31:10.260Z,93.40
2018-10-06T05:33:39.866Z,93.40
2018-10-06T05:36:09.495Z,93.40
2018-10-06T05:38:39.090Z,93.30
2018-10-06T05:41:08.706Z,93.30
2018-10-06T05:43:38.370Z,93.30
2018-10-06T05:46:08.310Z,93.30
2018-10-06T05:48:37.927Z,93.20
2018-10-06T05:51:07.780Z,93.10
2018-10-06T05:53:37.399Z,93.10
2018-10-06T05:56:07.009Z,93.00
2018-10-06T05:58:36.609Z,92.90
2018-10-06T06:01:06.256Z,92.90
2018-10-06T06:03:35.874Z,92.80
2018-10-06T06:06:05.492Z,92.70
2018-10-06T06:08:35.088Z,92.60
2018-10-06T06:11:04.712Z,92.40
2018-10-06T06:13:34.326Z,92.40
2018-10-06T06:16:03.971Z,92.20
2018-10-06T06:18:33.677Z,92.10
2018-10-06T06:21:03.314Z,92.00
2018-10-06T06:23:33.024Z,91.90
2018-10-06T06:26:02.678Z,91.90
2018-10-06T06:28:32.373Z,91.80
2018-10-06T06:31:02.008Z,91.70
2018-10-06T06:33:31.740Z,91.50
2018-10-06T06:36:01.363Z,91.40
2018-10-06T06:38:31.081Z,91.50
2018-10-06T06:41:00.621Z,91.70
2018-10-06T06:43:30.272Z,91.70
2018-10-06T06:45:59.879Z,91.10
2018-10-06T06:48:29.484Z,90.80
2018-10-06T06:50:59.150Z,90.00
2018-10-06T06:53:28.767Z,89.60
2018-10-06T06:55:58.419Z,89.70
2018-10-06T06:58:28.008Z,89.40
2018-10-06T07:00:57.638Z,89.30
2018-10-06T07:03:27.355Z,88.80
2018-10-06T07:05:58.713Z,88.20
2018-10-06T07:08:28.617Z,87.80
2018-10-06T07:10:58.578Z,87.60
2018-10-06T07:13:28.398Z,87.10
2018-10-06T07:15:58.320Z,87.20
2018-10-06T07:18:28.218Z,86.60
2018-10-06T07:20:59.908Z,86.10
2018-10-06T07:23:29.879Z,86.10
2018-10-06T07:25:59.883Z,85.80
2018-10-06T07:28:29.831Z,85.60
2018-10-06T07:30:59.792Z,84.40
2018-10-06T07:33:29.676Z,84.40
2018-10-06T07:36:00.788Z,83.70
2018-10-06T07:38:30.639Z,83.90
2018-10-06T07:41:00.435Z,83.40
2018-10-06T07:43:30.133Z,83.40
2018-10-06T07:45:59.967Z,83.30
2018-10-06T07:48:29.843Z,82.50
2018-10-06T07:50:59.552Z,81.70
2018-10-06T07:53:29.195Z,80.90
2018-10-06T07:55:58.796Z,80.50
2018-10-06T07:58:28.449Z,80.20
2018-10-06T08:00:58.044Z,80.00
2018-10-06T08:03:27.649Z,79.50
2018-10-06T08:05:57.300Z,79.30
2018-10-06T08:08:26.923Z,79.60
2018-10-06T08:10:56.614Z,79.20
2018-10-06T08:13:26.247Z,78.70
2018-10-06T08:15:55.881Z,78.10
2018-10-06T08:18:25.464Z,76.80
2018-10-06T08:20:55.104Z,76.40
2018-10-06T08:23:24.700Z,75.40
2018-10-06T08:25:54.314Z,75.50
2018-10-06T08:28:23.942Z,75.10
2018-10-06T08:30:53.610Z,75.40
2018-10-06T08:33:24.254Z,75.10
2018-10-06T08:35:53.882Z,74.70
2018-10-06T08:38:23.497Z,74.50
2018-10-06T08:40:54.251Z,74.40
2018-10-06T08:43:24.743Z,73.60
2018-10-06T08:45:56.474Z,72.90
2018-10-06T08:48:26.118Z,72.90
2018-10-06T08:50:55.886Z,72.20
2018-10-06T08:53:25.895Z,72.40
2018-10-06T08:55:55.612Z,71.00
2018-10-06T08:58:25.206Z,70.90
2018-10-06T09:00:54.901Z,71.10
2018-10-06T09:03:24.521Z,70.00
2018-10-06T09:05:54.166Z,69.90
2018-10-06T09:08:24.561Z,70.40
2018-10-06T09:10:54.270Z,70.70
2018-10-06T09:13:23.901Z,69.70
2018-10-06T09:15:53.626Z,69.10
2018-10-06T09:18:23.219Z,68.50
2018-10-06T09:20:52.814Z,67.90
2018-10-06T09:23:22.455Z,67.50
2018-10-06T09:25:52.114Z,67.50
2018-10-06T09:28:21.837Z,66.30
2018-10-06T09:30:51.386Z,65.30
2018-10-06T09:33:20.983Z,65.20
2018-10-06T09:35:50.608Z,65.30
2018-10-06T09:38:20.215Z,64.80
2018-10-06T09:40:49.835Z,64.90
2018-10-06T09:43:19.472Z,63.30
2018-10-06T09:45:49.116Z,62.40
2018-10-06T09:48:18.825Z,62.40
2018-10-06T09:50:48.407Z,62.30
2018-10-06T09:53:18.022Z,61.90
2018-10-06T09:55:47.617Z,59.70
2018-10-06T09:58:17.228Z,59.80
2018-10-06T10:00:52.194Z,59.80
2018-10-06T10:03:27.032Z,59.60
2018-10-06T10:05:56.694Z,60.20
2018-10-06T10:08:26.434Z,59.60
2018-10-06T10:10:56.057Z,59.70
2018-10-06T10:13:25.798Z,59.60
2018-10-06T10:15:55.415Z,58.80
2018-10-06T10:18:25.167Z,58.40
2018-10-06T10:20:54.679Z,58.10
2018-10-06T10:23:24.308Z,57.80
2018-10-06T10:25:54.003Z,57.90
2018-10-06T10:28:23.609Z,57.80
2018-10-06T10:30:53.256Z,57.20
2018-10-06T10:33:22.835Z,56.80
2018-10-06T10:35:52.545Z,57.50
2018-10-06T10:38:22.171Z,56.90
2018-10-06T10:40:51.812Z,56.90
2018-10-06T10:43:21.418Z,57.10
2018-10-06T10:45:51.025Z,56.40
2018-10-06T10:48:20.675Z,56.70
2018-10-06T10:50:50.379Z,56.20
2018-10-06T10:53:19.954Z,55.70
2018-10-06T10:55:49.601Z,56.00
2018-10-06T10:58:19.195Z,56.40
2018-10-06T11:00:48.796Z,56.00
2018-10-06T11:03:18.395Z,55.90
2018-10-06T11:05:48.054Z,55.10
2018-10-06T11:08:17.660Z,54.90
2018-10-06T11:10:47.264Z,54.20
2018-10-06T11:13:16.856Z,54.40
2018-10-06T11:15:46.538Z,54.60
2018-10-06T11:18:16.156Z,54.10
2018-10-06T11:20:45.781Z,54.30
2018-10-06T11:23:15.546Z,54.80
2018-10-06T11:25:45.190Z,54.60
2018-10-06T11:28:14.847Z,54.10
2018-10-06T11:30:44.464Z,54.00
2018-10-06T11:33:14.306Z,53.00
2018-10-06T11:35:43.926Z,52.90
2018-10-06T11:38:13.562Z,52.20
2018-10-06T11:40:43.168Z,52.00
2018-10-06T11:43:12.753Z,51.60
2018-10-06T11:45:42.357Z,51.10
2018-10-06T11:48:12.127Z,50.80
2018-10-06T11:50:41.743Z,51.30
2018-10-06T11:53:11.348Z,50.10
2018-10-06T11:55:40.940Z,50.00
2018-10-06T11:58:10.532Z,49.60
2018-10-06T12:00:40.255Z,49.20
2018-10-06T12:03:09.868Z,48.60
2018-10-06T12:05:39.582Z,47.30
2018-10-06T12:08:09.235Z,44.50
2018-10-06T12:10:38.847Z,43.60
2018-10-06T12:13:08.456Z,42.10
2018-10-06T12:15:38.079Z,41.70
2018-10-06T12:18:07.745Z,37.90
2018-10-06T12:20:37.405Z,35.10
2018-10-06T12:23:07.211Z,32.10
2018-10-06T12:25:36.821Z,30.00
2018-10-06T12:28:06.465Z,28.30
2018-10-06T12:30:36.130Z,27.40
2018-10-06T12:33:05.748Z,26.30
2018-10-06T12:35:35.454Z,25.90
2018-10-06T12:38:06.493Z,25.50
2018-10-06T12:40:36.125Z,25.00
2018-10-06T12:43:06.687Z,24.70
2018-10-06T12:45:36.512Z,24.00
2018-10-06T12:48:06.157Z,23.80
2018-10-06T12:50:35.757Z,22.90
2018-10-06T12:53:05.365Z,22.90
2018-10-06T12:55:34.985Z,22.60
2018-10-06T12:58:04.821Z,22.50
2018-10-06T13:00:34.449Z,22.10
2018-10-06T13:03:05.924Z,22.30
2018-10-06T13:05:35.657Z,22.60
2018-10-06T13:08:05.668Z,22.70
2018-10-06T13:10:35.540Z,22.60
2018-10-06T13:13:05.146Z,22.70
2018-10-06T13:15:34.798Z,22.30
2018-10-06T13:18:04.740Z,22.30
2018-10-06T13:20:34.776Z,22.10
2018-10-06T13:23:04.388Z,22.10
2018-10-06T13:25:34.018Z,22.30
2018-10-06T13:28:03.614Z,21.90
2018-10-06T13:30:33.688Z,22.20
2018-10-06T13:33:03.414Z,21.90
2018-10-06T13:35:33.023Z,21.60
2018-10-06T13:38:02.626Z,21.30
2018-10-06T13:40:32.245Z,21.90
2018-10-06T13:43:01.873Z,22.10
2018-10-06T13:45:31.670Z,22.10
2018-10-06T13:48:01.274Z,22.40
2018-10-06T13:50:30.895Z,22.30
2018-10-06T13:53:01.139Z,22.00
2018-10-06T13:55:30.851Z,22.30
2018-10-06T13:58:00.524Z,23.00
2018-10-06T14:00:30.210Z,23.70
2018-10-06T14:02:59.826Z,23.80
2018-10-06T14:05:29.467Z,23.40
2018-10-06T14:07:59.076Z,23.20
2018-10-06T14:10:28.770Z,22.70
2018-10-06T14:12:58.480Z,22.80
2018-10-06T14:15:28.093Z,23.00
2018-10-06T14:17:57.710Z,23.70
2018-10-06T14:20:27.359Z,24.40
2018-10-06T14:22:56.976Z,24.90
2018-10-06T14:25:26.677Z,24.70
2018-10-06T14:27:56.333Z,24.70
2018-10-06T14:30:25.936Z,24.70
2018-10-06T14:32:55.823Z,25.00
2018-10-06T14:35:25.488Z,25.60
2018-10-06T14:37:55.093Z,26.00
2018-10-06T14:40:24.856Z,26.30
2018-10-06T14:42:54.614Z,27.00
2018-10-06T14:45:24.367Z,27.30
2018-10-06T14:47:53.971Z,27.30
2018-10-06T14:50:23.599Z,26.70
2018-10-06T14:52:53.258Z,26.30
2018-10-06T14:55:22.871Z,26.60
2018-10-06T14:57:52.475Z,27.20
2018-10-06T15:00:22.168Z,27.90
2018-10-06T15:02:51.789Z,28.50
2018-10-06T15:05:21.409Z,29.40
2018-10-06T15:07:51.051Z,30.10
2018-10-06T15:10:20.691Z,31.90
2018-10-06T15:12:50.324Z,32.80
2018-10-06T15:15:20.279Z,33.70
2018-10-06T15:17:49.880Z,34.50
2018-10-06T15:20:20.050Z,35.50
2018-10-06T15:22:49.677Z,36.30
2018-10-06T15:25:19.325Z,37.10
2018-10-06T15:27:48.944Z,38.20
2018-10-06T15:30:18.591Z,39.10
2018-10-06T15:32:48.206Z,40.00
2018-10-06T15:35:17.799Z,40.80
2018-10-06T15:37:47.461Z,41.50
2018-10-06T15:40:17.072Z,42.10
2018-10-06T15:42:46.763Z,42.80
2018-10-06T15:45:16.332Z,43.50
2018-10-06T15:47:45.995Z,44.20
2018-10-06T15:50:15.607Z,44.70
2018-10-06T15:52:45.213Z,45.50
2018-10-06T15:55:14.840Z,46.50
2018-10-06T15:57:44.437Z,47.20
2018-10-06T16:00:14.077Z,47.80
2018-10-06T16:02:43.749Z,48.60
2018-10-06T16:05:13.335Z,49.60
2018-10-06T16:07:42.974Z,50.30
2018-10-06T16:10:12.580Z,51.00
2018-10-06T16:12:42.176Z,51.80
2018-10-06T16:15:11.842Z,52.60
2018-10-06T16:17:41.483Z,53.30
2018-10-06T16:20:11.159Z,53.90
2018-10-06T16:22:40.778Z,54.70
2018-10-06T16:25:10.437Z,55.10
2018-10-06T16:27:40.060Z,55.60
2018-10-06T16:30:10.047Z,56.00
2018-10-06T16:32:39.674Z,56.40
2018-10-06T16:35:09.370Z,57.00
2018-10-06T16:37:39.000Z,57.40
2018-10-06T16:40:08.730Z,57.90
2018-10-06T16:42:38.342Z,58.50
2018-10-06T16:45:08.084Z,58.90
2018-10-06T16:47:37.703Z,59.20
2018-10-06T16:50:07.363Z,59.40
2018-10-06T16:52:36.976Z,59.80
2018-10-06T16:55:06.627Z,60.20
2018-10-06T16:57:36.258Z,60.70
2018-10-06T17:00:05.946Z,61.80
2018-10-06T17:02:35.597Z,61.30
2018-10-06T17:05:05.468Z,61.70
2018-10-06T17:07:35.143Z,62.00
2018-10-06T17:10:04.815Z,62.10
2018-10-06T17:12:34.491Z,62.40
2018-10-06T17:15:04.164Z,62.60
2018-10-06T17:17:33.796Z,62.90
2018-10-06T17:20:03.497Z,63.30
2018-10-06T17:22:33.118Z,63.70
2018-10-06T17:25:02.774Z,63.80
2018-10-06T17:27:32.493Z,64.20
2018-10-06T17:30:02.119Z,64.40
2018-10-06T17:32:35.306Z,64.80
2018-10-06T17:35:04.974Z,65.00
2018-10-06T17:37:34.617Z,65.10
2018-10-06T17:40:04.394Z,65.40
2018-10-06T17:42:34.008Z,65.60
2018-10-06T17:45:03.660Z,65.80
2018-10-06T17:47:33.283Z,65.90
2018-10-06T17:50:02.984Z,66.00
2018-10-06T17:52:32.611Z,66.30
2018-10-06T17:55:02.275Z,66.40
2018-10-06T17:57:31.952Z,66.80
2018-10-06T18:00:01.568Z,67.10
2018-10-06T18:02:31.189Z,67.40
2018-10-06T18:05:00.888Z,67.60
2018-10-06T18:07:30.550Z,68.00
2018-10-06T18:10:00.211Z,68.10
2018-10-06T18:12:29.914Z,68.20
2018-10-06T18:14:59.524Z,68.60
2018-10-06T18:17:29.130Z,68.70
2018-10-06T18:19:58.850Z,68.90
2018-10-06T18:22:28.473Z,69.00
2018-10-06T18:24:58.068Z,69.20
2018-10-06T18:27:27.694Z,69.40
2018-10-06T18:29:57.328Z,69.60
2018-10-06T18:32:26.947Z,69.70
2018-10-06T18:34:56.594Z,69.90
2018-10-06T18:37:26.339Z,70.10
2018-10-06T18:39:55.961Z,70.30
2018-10-06T18:42:25.635Z,70.50
2018-10-06T18:44:55.233Z,70.60
2018-10-06T18:47:25.250Z,70.70
2018-10-06T18:49:54.890Z,70.90
2018-10-06T18:52:24.567Z,70.80
2018-10-06T18:54:54.145Z,71.00
2018-10-06T18:57:23.776Z,71.20
2018-10-06T18:59:53.419Z,71.30
2018-10-06T19:02:23.049Z,71.50
2018-10-06T19:04:52.704Z,71.80
2018-10-06T19:07:22.405Z,72.10
2018-10-06T19:09:52.082Z,72.30
2018-10-06T19:12:21.704Z,72.70
2018-10-06T19:14:51.397Z,72.80
2018-10-06T19:17:21.016Z,72.90
2018-10-06T19:19:50.645Z,72.90
2018-10-06T19:22:20.350Z,73.00
2018-10-06T19:24:50.156Z,73.40
2018-10-06T19:27:19.774Z,73.70
2018-10-06T19:29:49.672Z,73.70
2018-10-06T19:32:19.331Z,73.80
2018-10-06T19:34:48.962Z,73.90
2018-10-06T19:37:18.552Z,74.00
2018-10-06T19:39:48.185Z,73.90
2018-10-06T19:42:17.842Z,73.80
2018-10-06T19:44:47.491Z,74.00
2018-10-06T19:47:17.092Z,74.10
2018-10-06T19:49:46.724Z,74.40
2018-10-06T19:52:16.381Z,74.60
2018-10-06T19:54:46.003Z,74.80
2018-10-06T19:57:15.612Z,75.00
2018-10-06T19:59:45.244Z,75.20
2018-10-06T20:02:14.868Z,75.30
2018-10-06T20:04:44.462Z,75.40
2018-10-06T20:07:14.103Z,75.60
2018-10-06T20:09:43.772Z,75.70
2018-10-06T20:12:13.499Z,76.00
2018-10-06T20:14:43.234Z,76.00
2018-10-06T20:17:12.856Z,76.10
2018-10-06T20:19:42.504Z,76.20
2018-10-06T20:22:13.210Z,76.40
2018-10-06T20:24:42.887Z,76.40
2018-10-06T20:27:12.540Z,76.40
2018-10-06T20:29:42.208Z,76.40
2018-10-06T20:32:11.825Z,76.40
2018-10-06T20:34:41.451Z,76.30
2018-10-06T20:37:11.051Z,76.30
2018-10-06T20:39:40.642Z,76.50
2018-10-06T20:42:10.263Z,76.50
2018-10-06T20:44:39.886Z,76.80
2018-10-06T20:47:09.534Z,76.90
2018-10-06T20:49:39.194Z,77.00
2018-10-06T20:52:08.800Z,77.20
2018-10-06T20:54:38.419Z,77.30
2018-10-06T20:57:08.117Z,77.40
2018-10-06T20:59:37.732Z,77.50
2018-10-06T21:02:07.536Z,77.60
2018-10-06T21:04:37.964Z,77.70
2018-10-06T21:07:07.980Z,77.70
2018-10-06T21:09:37.754Z,77.70
2018-10-06T21:12:07.399Z,77.80
2018-10-06T21:14:37.035Z,77.90
2018-10-06T21:17:06.646Z,77.90
2018-10-06T21:19:36.278Z,78.00
2018-10-06T21:22:05.907Z,78.20
2018-10-06T21:24:35.646Z,78.50
2018-10-06T21:27:05.290Z,78.70
2018-10-06T21:29:35.036Z,79.10
2018-10-06T21:32:04.688Z,79.20
2018-10-06T21:34:34.347Z,79.40
2018-10-06T21:37:03.978Z,79.60
2018-10-06T21:39:40.579Z,79.70
2018-10-06T21:42:10.175Z,79.80
2018-10-06T21:44:39.792Z,79.90
2018-10-06T21:47:09.392Z,80.10
2018-10-06T21:49:39.072Z,80.40
2018-10-06T21:52:08.686Z,80.60
2018-10-06T21:54:38.450Z,81.10
2018-10-06T21:57:08.082Z,81.30
2018-10-06T21:59:37.739Z,81.60
2018-10-06T22:02:07.384Z,81.80
2018-10-06T22:04:36.984Z,81.80
2018-10-06T22:07:06.708Z,82.00
2018-10-06T22:09:36.354Z,82.20
2018-10-06T22:12:06.281Z,82.30
2018-10-06T22:14:35.906Z,82.40
2018-10-06T22:17:05.551Z,82.70
2018-10-06T22:19:35.167Z,82.80
2018-10-06T22:22:04.776Z,83.00
2018-10-06T22:24:34.392Z,83.20
2018-10-06T22:27:04.030Z,83.20
2018-10-06T22:29:33.670Z,83.30
2018-10-06T22:32:03.299Z,83.40
2018-10-06T22:34:32.948Z,83.30
2018-10-06T22:37:02.610Z,83.40
2018-10-06T22:39:32.239Z,83.50
2018-10-06T22:42:01.868Z,83.50
2018-10-06T22:44:31.484Z,83.50
2018-10-06T22:47:01.079Z,83.70
2018-10-06T22:49:30.740Z,83.70
2018-10-06T22:52:00.347Z,83.80
2018-10-06T22:54:29.997Z,84.00
2018-10-06T22:56:59.665Z,84.10
2018-10-06T22:59:29.271Z,84.00
2018-10-06T23:01:58.888Z,84.20
2018-10-06T23:04:28.526Z,84.40
2018-10-06T23:06:58.141Z,84.60
2018-10-06T23:09:27.762Z,84.70
2018-10-06T23:11:57.404Z,84.90
2018-10-06T23:14:27.016Z,85.00
2018-10-06T23:16:56.637Z,85.20
2018-10-06T23:19:26.309Z,85.20
2018-10-06T23:21:55.931Z,85.20
2018-10-06T23:24:25.559Z,85.20
2018-10-06T23:26:55.202Z,85.30
2018-10-06T23:29:24.820Z,85.30
2018-10-06T23:31:54.451Z,85.30
2018-10-06T23:34:24.134Z,85.30
2018-10-06T23:36:53.832Z,85.40
2018-10-06T23:39:23.441Z,85.60
2018-10-06T23:41:53.060Z,85.70
2018-10-06T23:44:22.668Z,85.80
2018-10-06T23:46:52.290Z,86.00
2018-10-06T23:49:21.899Z,86.00
2018-10-06T23:51:51.522Z,86.20
2018-10-06T23:54:21.178Z,86.30
2018-10-06T23:56:50.781Z,86.40
2018-10-06T23:59:20.377Z,86.40
